Upton, NY

3:40 PM EST on November 24, 2014 (GMT -0500)
Brookhaven | Change Station
CLOSE
Current Station
Airport
Location: Shirley,
Elevation: 82 ft
Nearby Weather Stations

Elev 82 ft 40.82 °N, 72.87 °W | Updated 10 minutes ago

Fog
Fog
58 °F
Feels Like 58 °F
N
18
Wind Variable Wind from SSW
Gusts 29 mph

Today
High -- | Low -- °F
--% Chance of Precip.
Yesterday
High -- | Low -- °F
Precip. -- in
6:49 AM 4:27 PM
Waxing Crescent, 7% visible
Pressure 29.64 in
Visibility 0.8 miles
Clouds
Dew Point 57 °F
Humidity 97%
Rainfall 0.76 in
Snow Depth Not available.
UV Not available.
Pollen .10 out of 12
Air Quality Not available.
Flu Activity Not available.
SPECI KHWV 242030Z AUTO 20016G25KT 3/4SM BR VV002 14/14 A2964 RMK AO2 PK WND 20026/2009 T01440139 TSNO

More Conditions Fewer Conditions

Pressure 29.64 in
Visibility 0.8 miles
Clouds
Dew Point 57 °F
Humidity 97%
Rainfall 0.76 in
Snow Depth Not available.
UV Not available.
Pollen .10 out of 12
Air Quality Not available.
Flu Activity Not available.
SPECI KHWV 242030Z AUTO 20016G25KT 3/4SM BR VV002 14/14 A2964 RMK AO2 PK WND 20026/2009 T01440139 TSNO

More Conditions Fewer Conditions

10-Day Weather Forecast

Almanac

Astronomy

Nov. 24, 2014 Rise Set
Actual Time
Civil Twilight
Nautical Twilight
Astronomical Twilight
Moon
Length of Visible Light
Length of Day
Tomorrow will be .
, % of the Moon is Illuminated

Today's Extremes

State Highs State Lows

Community

WunderPhotos

Upload Photos

1,773,406 photos uploaded!

WunderBlogs® & News

Nearby

Air Quality

  Air Quality AQ Index Pollutant
Not available.

Snow Depth

Station Depth Elevation

Earthquake Activity

City Distance Mag. Time & Date
Minimum magnitude displayed is 2.5.

Coastal Water Temperatures

Place Temperature

Nearby Weather Stations